createdAt,value
2017-02-24T00:00:54.650Z,0
2017-02-24T00:01:54.698Z,0
2017-02-24T00:02:54.763Z,0
2017-02-24T00:03:54.807Z,0
2017-02-24T00:04:54.861Z,0
2017-02-24T00:05:54.929Z,0
2017-02-24T00:06:54.975Z,0
2017-02-24T00:07:55.031Z,0
2017-02-24T00:08:55.109Z,0
2017-02-24T00:09:55.131Z,0
2017-02-24T00:10:55.235Z,0
2017-02-24T00:11:55.482Z,0
2017-02-24T00:12:55.500Z,0
2017-02-24T00:13:54.977Z,0
2017-02-24T00:14:55.423Z,0
2017-02-24T00:15:55.475Z,0
2017-02-24T00:16:55.527Z,0
2017-02-24T00:17:55.583Z,0
2017-02-24T00:18:55.636Z,0
2017-02-24T00:19:55.678Z,0
2017-02-24T00:20:55.750Z,0
2017-02-24T00:21:55.809Z,0
2017-02-24T00:22:55.861Z,0
2017-02-24T00:23:55.923Z,0
2017-02-24T00:24:55.952Z,0
2017-02-24T00:25:56.025Z,0
2017-02-24T00:26:56.087Z,0
2017-02-24T00:27:56.130Z,0
2017-02-24T00:28:56.210Z,0
2017-02-24T00:29:56.246Z,0
2017-02-24T00:30:56.300Z,0
2017-02-24T00:31:56.358Z,0
2017-02-24T00:32:56.423Z,0
2017-02-24T00:33:56.471Z,0
2017-02-24T00:34:56.529Z,0
2017-02-24T00:35:56.570Z,0
2017-02-24T00:36:56.624Z,0
2017-02-24T00:37:56.683Z,0
2017-02-24T00:38:56.738Z,0
2017-02-24T00:39:56.795Z,0
2017-02-24T00:40:56.834Z,0
2017-02-24T00:41:56.900Z,0
2017-02-24T00:42:56.944Z,0
2017-02-24T00:43:57.033Z,0
2017-02-24T00:44:57.083Z,0
2017-02-24T00:45:57.352Z,0
2017-02-24T00:46:57.385Z,0
2017-02-24T00:47:57.222Z,0
2017-02-24T00:48:57.278Z,0
2017-02-24T00:49:57.356Z,0
2017-02-24T00:50:57.396Z,0
2017-02-24T00:51:57.456Z,0
2017-02-24T00:52:57.524Z,0
2017-02-24T00:53:57.574Z,0
2017-02-24T00:54:57.641Z,0
2017-02-24T00:55:57.707Z,0
2017-02-24T00:56:57.719Z,0
2017-02-24T00:57:57.784Z,0
2017-02-24T00:58:57.841Z,0
2017-02-24T00:59:57.903Z,0
2017-02-24T01:00:57.939Z,0
2017-02-24T01:01:57.987Z,0
2017-02-24T01:02:58.056Z,0
2017-02-24T01:03:58.115Z,0
2017-02-24T01:04:58.178Z,0
2017-02-24T01:05:58.245Z,0
2017-02-24T01:06:58.270Z,0
2017-02-24T01:07:58.349Z,0
2017-02-24T01:08:58.413Z,0
2017-02-24T01:09:58.471Z,0
2017-02-24T01:10:58.495Z,0
2017-02-24T01:11:58.569Z,0
2017-02-24T01:12:58.607Z,0
2017-02-24T01:13:58.868Z,0
2017-02-24T01:14:58.940Z,0
2017-02-24T01:15:58.776Z,0
2017-02-24T01:16:58.825Z,0
2017-02-24T01:17:58.888Z,0
2017-02-24T01:19:12.590Z,0
2017-02-24T01:20:12.639Z,0
2017-02-24T01:20:59.067Z,0
2017-02-24T01:21:59.126Z,0
2017-02-24T01:22:59.178Z,0
2017-02-24T01:23:59.213Z,0
2017-02-24T01:24:59.301Z,0
2017-02-24T01:26:12.985Z,0
2017-02-24T01:26:59.383Z,0
2017-02-24T01:27:59.450Z,0
2017-02-24T01:28:59.508Z,0
2017-02-24T01:29:59.557Z,0
2017-02-24T01:30:59.615Z,0
2017-02-24T01:31:59.646Z,0
2017-02-24T01:32:59.696Z,0
2017-02-24T01:33:59.770Z,0
2017-02-24T01:34:59.807Z,0
2017-02-24T01:35:59.870Z,0
2017-02-24T01:36:59.935Z,0
2017-02-24T01:37:59.987Z,0
2017-02-24T01:39:00.055Z,0
2017-02-24T01:40:00.098Z,0
2017-02-24T01:41:00.142Z,0
2017-02-24T01:42:00.211Z,0
2017-02-24T01:43:00.278Z,0
2017-02-24T01:44:00.318Z,0
2017-02-24T01:45:00.391Z,0
2017-02-24T01:46:00.458Z,0
2017-02-24T01:47:00.517Z,0
2017-02-24T01:48:00.542Z,0
2017-02-24T01:49:00.596Z,0
2017-02-24T01:50:00.656Z,0
2017-02-24T01:51:00.719Z,0
2017-02-24T01:52:00.775Z,0
2017-02-24T01:53:14.199Z,0
2017-02-24T01:54:01.119Z,0
2017-02-24T01:55:14.590Z,0
2017-02-24T01:56:00.979Z,0
2017-02-24T01:57:00.658Z,0
2017-02-24T01:58:01.109Z,0
2017-02-24T01:59:14.800Z,0
2017-02-24T02:00:01.200Z,0
2017-02-24T02:01:01.259Z,0
2017-02-24T02:02:01.309Z,0
2017-02-24T02:03:01.384Z,0
2017-02-24T02:04:01.441Z,0
2017-02-24T02:05:01.490Z,0
2017-02-24T02:06:01.533Z,0
2017-02-24T02:07:01.595Z,0
2017-02-24T02:08:01.655Z,0
2017-02-24T02:09:01.701Z,0
2017-02-24T02:10:01.767Z,0
2017-02-24T02:11:01.817Z,0
2017-02-24T02:12:01.877Z,0
2017-02-24T02:13:01.925Z,0
2017-02-24T02:14:01.992Z,0
2017-02-24T02:15:02.044Z,0
2017-02-24T02:16:02.104Z,0
2017-02-24T02:17:02.153Z,0
2017-02-24T02:18:02.202Z,0
2017-02-24T02:19:02.237Z,0
2017-02-24T02:20:02.329Z,0
2017-02-24T02:21:02.359Z,0
2017-02-24T02:22:02.622Z,0
2017-02-24T02:23:02.472Z,0
2017-02-24T02:24:02.529Z,0
2017-02-24T02:25:02.586Z,0
2017-02-24T02:26:02.630Z,0
2017-02-24T02:27:02.886Z,0
2017-02-24T02:28:02.744Z,0
2017-02-24T02:29:02.824Z,0
2017-02-24T02:30:02.464Z,0
2017-02-24T02:31:02.913Z,0
2017-02-24T02:32:02.980Z,0
2017-02-24T02:33:03.223Z,0
2017-02-24T02:34:03.077Z,0
2017-02-24T02:35:03.154Z,0
2017-02-24T02:36:03.179Z,0
2017-02-24T02:37:03.241Z,0
2017-02-24T02:38:03.321Z,0
2017-02-24T02:39:03.354Z,0
2017-02-24T02:40:03.409Z,0
2017-02-24T02:41:03.489Z,0
2017-02-24T02:42:03.535Z,0
2017-02-24T02:43:03.575Z,0
2017-02-24T02:44:03.640Z,0
2017-02-24T02:45:03.688Z,0
2017-02-24T02:46:03.739Z,0
2017-02-24T02:47:03.413Z,0
2017-02-24T02:48:03.866Z,0
2017-02-24T02:49:03.916Z,0
2017-02-24T02:50:03.951Z,0
2017-02-24T02:51:04.022Z,0
2017-02-24T02:52:04.075Z,0
2017-02-24T02:53:04.150Z,0
2017-02-24T02:54:04.174Z,0
2017-02-24T02:55:04.260Z,0
2017-02-24T02:56:04.321Z,0
2017-02-24T02:57:04.353Z,0
2017-02-24T02:58:04.424Z,0
2017-02-24T02:59:04.470Z,0
2017-02-24T03:00:04.515Z,0
2017-02-24T03:01:04.596Z,0
2017-02-24T03:02:04.627Z,0
2017-02-24T03:03:04.670Z,0
2017-02-24T03:04:04.800Z,0
2017-02-24T03:05:04.784Z,0
2017-02-24T03:06:04.862Z,0
2017-02-24T03:07:04.930Z,0
2017-02-24T03:08:04.959Z,0
2017-02-24T03:09:05.031Z,0
2017-02-24T03:10:05.075Z,0
2017-02-24T03:11:05.123Z,0
2017-02-24T03:12:05.189Z,0
2017-02-24T03:13:05.228Z,0
2017-02-24T03:14:05.284Z,0
2017-02-24T03:15:05.344Z,0
2017-02-24T03:16:05.409Z,0
2017-02-24T03:17:05.446Z,0
2017-02-24T03:18:05.527Z,0
2017-02-24T03:19:05.560Z,0
2017-02-24T03:20:05.684Z,0
2017-02-24T03:21:05.686Z,0
2017-02-24T03:22:05.741Z,0
2017-02-24T03:23:05.767Z,0
2017-02-24T03:24:05.848Z,0
2017-02-24T03:25:05.903Z,0
2017-02-24T03:26:05.954Z,0
2017-02-24T03:27:05.646Z,0
2017-02-24T03:28:06.084Z,0
2017-02-24T03:29:06.157Z,0
2017-02-24T03:30:06.184Z,0
2017-02-24T03:31:06.248Z,0
2017-02-24T03:32:06.287Z,0
2017-02-24T03:33:06.341Z,0
2017-02-24T03:34:06.410Z,0
2017-02-24T03:35:06.443Z,0
2017-02-24T03:36:06.511Z,0
2017-02-24T03:37:06.202Z,0
2017-02-24T03:38:06.648Z,0
2017-02-24T03:39:06.671Z,0
2017-02-24T03:40:06.722Z,0
2017-02-24T03:41:06.771Z,0
2017-02-24T03:42:06.857Z,0
2017-02-24T03:43:06.884Z,0
2017-02-24T03:44:06.941Z,0
2017-02-24T03:45:06.606Z,0
2017-02-24T03:46:07.073Z,0
2017-02-24T03:47:07.094Z,0
2017-02-24T03:48:07.150Z,0
2017-02-24T03:49:07.202Z,0
2017-02-24T03:50:07.262Z,0
2017-02-24T03:51:07.352Z,0
2017-02-24T03:52:07.395Z,0
2017-02-24T03:53:07.426Z,0
2017-02-24T03:54:07.510Z,0
2017-02-24T03:55:07.561Z,0
2017-02-24T03:56:07.602Z,0
2017-02-24T03:57:07.650Z,0
2017-02-24T03:58:07.738Z,0
2017-02-24T03:59:07.768Z,0
2017-02-24T04:00:07.813Z,0
2017-02-24T04:01:07.890Z,0
2017-02-24T04:02:07.948Z,0
2017-02-24T04:03:07.977Z,0
2017-02-24T04:04:07.663Z,0
2017-02-24T04:05:08.120Z,0
2017-02-24T04:06:07.383Z,0
2017-02-24T04:07:08.217Z,0
2017-02-24T04:08:08.264Z,0
2017-02-24T04:09:08.320Z,0
2017-02-24T04:10:08.365Z,0
2017-02-24T04:11:08.443Z,0
2017-02-24T04:12:08.104Z,0
2017-02-24T04:13:08.541Z,0
2017-02-24T04:14:07.823Z,0
2017-02-24T04:15:08.251Z,0
2017-02-24T04:16:08.708Z,0
2017-02-24T04:17:08.375Z,0
2017-02-24T04:18:08.827Z,0
2017-02-24T04:19:08.867Z,0
2017-02-24T04:20:08.939Z,0
2017-02-24T04:21:08.981Z,0
2017-02-24T04:22:09.021Z,0
2017-02-24T04:23:09.112Z,0
2017-02-24T04:24:08.368Z,0
2017-02-24T04:25:09.210Z,0
2017-02-24T04:26:09.248Z,0
2017-02-24T04:27:09.308Z,0
2017-02-24T04:28:09.377Z,0
2017-02-24T04:29:09.435Z,0
2017-02-24T04:30:09.485Z,0
2017-02-24T04:31:09.556Z,0
2017-02-24T04:32:09.575Z,0
2017-02-24T04:33:09.657Z,0
2017-02-24T04:34:09.699Z,0
2017-02-24T04:35:09.769Z,0
2017-02-24T04:36:09.851Z,0
2017-02-24T04:37:09.867Z,0
2017-02-24T04:38:09.519Z,0
2017-02-24T04:39:09.582Z,0
2017-02-24T04:40:09.638Z,0
2017-02-24T04:41:10.089Z,0
2017-02-24T04:42:09.753Z,0
2017-02-24T04:43:10.196Z,0
2017-02-24T04:44:09.858Z,0
2017-02-24T04:45:10.311Z,0
2017-02-24T04:46:10.360Z,0
2017-02-24T04:47:10.397Z,0
2017-02-24T04:48:10.482Z,0
2017-02-24T04:49:10.550Z,0
2017-02-24T04:50:10.614Z,0
2017-02-24T04:51:10.638Z,0
2017-02-24T04:52:10.735Z,0
2017-02-24T04:53:10.362Z,0
2017-02-24T04:54:10.408Z,0
2017-02-24T04:55:10.857Z,0
2017-02-24T04:56:10.893Z,0
2017-02-24T04:57:10.957Z,0
2017-02-24T04:58:11.019Z,0
2017-02-24T04:59:11.080Z,0
2017-02-24T05:00:10.745Z,0
2017-02-24T05:01:11.195Z,0
2017-02-24T05:02:10.885Z,0
2017-02-24T05:03:11.300Z,0
2017-02-24T05:04:11.357Z,0
2017-02-24T05:05:11.401Z,0
2017-02-24T05:06:11.453Z,0
2017-02-24T05:07:11.522Z,0
2017-02-24T05:08:11.588Z,0
2017-02-24T05:09:11.649Z,0
2017-02-24T05:10:11.709Z,0
2017-02-24T05:11:11.738Z,0
2017-02-24T05:12:11.801Z,0
2017-02-24T05:13:11.854Z,0
2017-02-24T05:14:11.530Z,0
2017-02-24T05:15:11.979Z,0
2017-02-24T05:16:12.039Z,0
2017-02-24T05:17:12.084Z,0
2017-02-24T05:18:12.110Z,0
2017-02-24T05:19:12.178Z,0
2017-02-24T05:20:12.244Z,0
2017-02-24T05:21:12.290Z,0
2017-02-24T05:22:12.357Z,0
2017-02-24T05:23:11.635Z,0
2017-02-24T05:24:12.460Z,0
2017-02-24T05:25:12.502Z,0
2017-02-24T05:26:12.583Z,0
2017-02-24T05:27:12.620Z,0
2017-02-24T05:28:12.695Z,0
2017-02-24T05:29:12.769Z,0
2017-02-24T05:30:12.797Z,0
2017-02-24T05:31:12.857Z,0
2017-02-24T05:32:12.504Z,0
2017-02-24T05:33:12.576Z,0
2017-02-24T05:34:12.640Z,0
2017-02-24T05:35:13.077Z,0
2017-02-24T05:36:13.128Z,0
2017-02-24T05:37:13.165Z,0
2017-02-24T05:38:12.864Z,0
2017-02-24T05:39:13.293Z,0
2017-02-24T05:40:12.963Z,0
2017-02-24T05:41:13.412Z,0
2017-02-24T05:42:13.471Z,0
2017-02-24T05:43:13.497Z,0
2017-02-24T05:44:13.562Z,0
2017-02-24T05:45:13.633Z,0
2017-02-24T05:46:13.688Z,0
2017-02-24T05:47:13.729Z,0
2017-02-24T05:48:13.414Z,0
2017-02-24T05:49:13.856Z,0
2017-02-24T05:50:13.507Z,0
2017-02-24T05:51:13.952Z,0
2017-02-24T05:52:13.996Z,0
2017-02-24T05:53:14.080Z,0
2017-02-24T05:54:14.132Z,0
2017-02-24T05:55:13.792Z,4
2017-02-24T05:56:14.240Z,4
2017-02-24T05:57:14.284Z,4
2017-02-24T05:58:14.338Z,4
2017-02-24T05:59:14.406Z,4
2017-02-24T06:00:13.676Z,4
2017-02-24T06:01:14.498Z,4
2017-02-24T06:02:14.543Z,4
2017-02-24T06:03:14.649Z,4
2017-02-24T06:04:14.281Z,8
2017-02-24T06:05:14.336Z,8
2017-02-24T06:06:14.792Z,8
2017-02-24T06:07:14.831Z,12
2017-02-24T06:08:14.878Z,8
2017-02-24T06:09:14.582Z,8
2017-02-24T06:10:15.007Z,8
2017-02-24T06:11:15.045Z,12
2017-02-24T06:12:15.123Z,12
2017-02-24T06:13:15.173Z,16
2017-02-24T06:14:14.861Z,12
2017-02-24T06:15:15.277Z,16
2017-02-24T06:16:15.352Z,20
2017-02-24T06:17:15.390Z,20
2017-02-24T06:18:15.455Z,20
2017-02-24T06:19:15.500Z,24
2017-02-24T06:20:15.175Z,20
2017-02-24T06:21:15.222Z,24
2017-02-24T06:22:15.665Z,28
2017-02-24T06:23:15.741Z,28
2017-02-24T06:24:15.408Z,32
2017-02-24T06:25:15.830Z,36
2017-02-24T06:26:15.866Z,40
2017-02-24T06:27:15.546Z,40
2017-02-24T06:28:15.609Z,40
2017-02-24T06:29:16.055Z,44
2017-02-24T06:30:16.104Z,44
2017-02-24T06:31:16.160Z,48
2017-02-24T06:32:16.233Z,44
2017-02-24T06:33:16.265Z,52
2017-02-24T06:34:15.930Z,60
2017-02-24T06:35:16.372Z,60
2017-02-24T06:36:16.048Z,60
2017-02-24T06:37:16.496Z,64
2017-02-24T06:38:16.530Z,60
2017-02-24T06:39:16.609Z,68
2017-02-24T06:40:16.660Z,72
2017-02-24T06:41:16.703Z,76
2017-02-24T06:42:16.382Z,80
2017-02-24T06:43:16.459Z,92
2017-02-24T06:44:16.503Z,104
2017-02-24T06:45:16.939Z,112
2017-02-24T06:46:16.981Z,120
2017-02-24T06:47:16.669Z,132
2017-02-24T06:48:17.100Z,136
2017-02-24T06:49:17.165Z,144
2017-02-24T06:50:17.198Z,152
2017-02-24T06:51:16.865Z,160
2017-02-24T06:52:17.318Z,160
2017-02-24T06:53:17.375Z,168
2017-02-24T06:54:17.444Z,172
2017-02-24T06:55:17.493Z,172
2017-02-24T06:56:17.547Z,172
2017-02-24T06:57:17.594Z,184
2017-02-24T06:58:17.648Z,188
2017-02-24T06:59:17.696Z,196
2017-02-24T07:00:17.767Z,204
2017-02-24T07:01:17.812Z,208
2017-02-24T07:02:17.872Z,208
2017-02-24T07:03:17.554Z,204
2017-02-24T07:04:17.978Z,204
2017-02-24T07:05:17.647Z,212
2017-02-24T07:06:18.106Z,220
2017-02-24T07:07:18.144Z,228
2017-02-24T07:08:18.209Z,228
2017-02-24T07:09:18.277Z,228
2017-02-24T07:10:18.330Z,232
2017-02-24T07:11:18.370Z,244
2017-02-24T07:12:18.431Z,252
2017-02-24T07:13:18.462Z,260
2017-02-24T07:14:18.514Z,272
2017-02-24T07:15:18.586Z,284
2017-02-24T07:16:18.667Z,292
2017-02-24T07:17:18.713Z,308
2017-02-24T07:18:18.752Z,304
2017-02-24T07:19:18.815Z,284
2017-02-24T07:20:18.853Z,280
2017-02-24T07:21:18.929Z,284
2017-02-24T07:22:18.976Z,300
2017-02-24T07:23:18.646Z,308
2017-02-24T07:24:19.082Z,336
2017-02-24T07:25:19.178Z,364
2017-02-24T07:26:19.190Z,376
2017-02-24T07:27:19.256Z,392
2017-02-24T07:28:19.307Z,372
2017-02-24T07:29:19.359Z,356
2017-02-24T07:30:19.420Z,352
2017-02-24T07:31:19.482Z,340
2017-02-24T07:32:19.536Z,352
2017-02-24T07:33:19.584Z,380
2017-02-24T07:34:19.633Z,404
2017-02-24T07:35:19.669Z,396
2017-02-24T07:36:19.752Z,400
2017-02-24T07:37:19.782Z,440
2017-02-24T07:38:19.870Z,488
2017-02-24T07:39:19.907Z,504
2017-02-24T07:40:19.584Z,532
2017-02-24T07:41:20.012Z,528
2017-02-24T07:42:19.702Z,540
2017-02-24T07:43:20.123Z,616
2017-02-24T07:44:20.193Z,676
2017-02-24T07:45:20.246Z,624
2017-02-24T07:46:20.286Z,672
2017-02-24T07:47:20.350Z,728
2017-02-24T07:48:20.409Z,772
2017-02-24T07:49:20.455Z,904
2017-02-24T07:50:19.757Z,1076
2017-02-24T07:51:20.571Z,1048
2017-02-24T07:52:20.625Z,1020
2017-02-24T07:53:20.693Z,1048
2017-02-24T07:54:20.734Z,1008
2017-02-24T07:55:20.799Z,1000
2017-02-24T07:56:20.843Z,1056
2017-02-24T07:57:20.894Z,1096
2017-02-24T07:58:21.005Z,1216
2017-02-24T07:59:21.008Z,1168
2017-02-24T08:00:21.072Z,1044
2017-02-24T08:01:21.143Z,924
2017-02-24T08:02:21.157Z,816
2017-02-24T08:03:21.219Z,784
2017-02-24T08:04:21.279Z,792
2017-02-24T08:05:21.377Z,844
2017-02-24T08:06:21.410Z,836
2017-02-24T08:07:21.465Z,788
2017-02-24T08:08:21.515Z,708
2017-02-24T08:09:21.575Z,664
2017-02-24T08:10:21.605Z,640
2017-02-24T08:11:21.652Z,604
2017-02-24T08:12:21.736Z,600
2017-02-24T08:13:21.774Z,624
2017-02-24T08:14:21.843Z,636
2017-02-24T08:15:21.910Z,664
2017-02-24T08:16:21.964Z,712
2017-02-24T08:17:21.997Z,736
2017-02-24T08:18:22.069Z,796
2017-02-24T08:19:22.141Z,828
2017-02-24T08:20:22.180Z,832
2017-02-24T08:21:22.220Z,880
2017-02-24T08:22:22.292Z,892
2017-02-24T08:23:22.340Z,868
2017-02-24T08:24:22.387Z,952
2017-02-24T08:25:22.068Z,952
2017-02-24T08:26:22.488Z,1036
2017-02-24T08:27:22.550Z,1200
2017-02-24T08:28:22.218Z,1252
2017-02-24T08:29:22.671Z,1284
2017-02-24T08:30:22.726Z,1372
2017-02-24T08:31:22.772Z,1308
2017-02-24T08:32:22.450Z,1268
2017-02-24T08:33:22.867Z,1344
2017-02-24T08:34:22.949Z,1452
2017-02-24T08:35:23.001Z,1476
2017-02-24T08:36:23.086Z,1336
2017-02-24T08:37:23.108Z,1268
2017-02-24T08:38:23.149Z,1272
2017-02-24T08:39:23.211Z,1236
2017-02-24T08:40:23.254Z,1292
2017-02-24T08:41:23.327Z,1496
2017-02-24T08:42:23.411Z,1524
2017-02-24T08:43:23.435Z,1492
2017-02-24T08:44:23.501Z,1544
2017-02-24T08:45:23.550Z,1756
2017-02-24T08:46:23.604Z,1880
2017-02-24T08:47:23.643Z,1884
2017-02-24T08:48:23.694Z,2040
2017-02-24T08:49:23.768Z,1740
2017-02-24T08:50:23.821Z,1392
2017-02-24T08:51:23.885Z,1376
2017-02-24T08:52:23.927Z,1632
2017-02-24T08:53:23.962Z,1708
2017-02-24T08:54:24.033Z,1712
2017-02-24T08:55:24.084Z,1836
2017-02-24T08:56:24.154Z,1880
2017-02-24T08:57:24.191Z,1996
2017-02-24T08:58:24.255Z,2024
2017-02-24T08:59:24.319Z,2024
2017-02-24T09:00:24.379Z,2136
2017-02-24T09:01:24.429Z,2368
2017-02-24T09:02:24.473Z,2428
2017-02-24T09:03:24.523Z,2484
2017-02-24T09:04:24.597Z,2348
2017-02-24T09:05:24.629Z,2064
2017-02-24T09:06:24.679Z,1864
2017-02-24T09:07:24.742Z,1668
2017-02-24T09:08:24.811Z,1700
2017-02-24T09:09:24.854Z,1780
2017-02-24T09:10:24.902Z,1996
2017-02-24T09:11:24.969Z,2024
2017-02-24T09:12:25.036Z,2000
2017-02-24T09:13:24.695Z,2064
2017-02-24T09:14:25.119Z,2356
2017-02-24T09:15:25.210Z,2744
2017-02-24T09:16:25.244Z,2552
2017-02-24T09:17:25.297Z,2748
2017-02-24T09:18:24.972Z,2620
2017-02-24T09:19:25.036Z,2368
2017-02-24T09:20:25.454Z,2356
2017-02-24T09:21:25.518Z,2508
2017-02-24T09:22:25.191Z,2500
2017-02-24T09:23:25.260Z,2276
2017-02-24T09:24:25.674Z,2192
2017-02-24T09:25:25.741Z,2112
2017-02-24T09:26:25.805Z,1896
2017-02-24T09:27:25.865Z,1696
2017-02-24T09:28:25.922Z,1712
2017-02-24T09:29:25.951Z,1636
2017-02-24T09:30:26.022Z,1668
2017-02-24T09:31:26.084Z,1764
2017-02-24T09:32:26.126Z,1876
2017-02-24T09:33:26.189Z,2048
2017-02-24T09:34:26.237Z,2104
2017-02-24T09:35:26.287Z,1920
2017-02-24T09:36:26.337Z,1720
2017-02-24T09:37:26.399Z,1720
2017-02-24T09:38:26.519Z,1532
2017-02-24T09:39:26.494Z,1472
2017-02-24T09:40:26.551Z,1448
2017-02-24T09:41:26.619Z,1416
2017-02-24T09:42:26.679Z,1484
2017-02-24T09:43:26.730Z,1420
2017-02-24T09:44:26.404Z,1448
2017-02-24T09:45:26.855Z,1468
2017-02-24T09:46:26.908Z,1444
2017-02-24T09:47:26.574Z,1404
2017-02-24T09:48:27.024Z,1424
2017-02-24T09:49:27.074Z,1424
2017-02-24T09:50:27.128Z,1416
2017-02-24T09:51:27.183Z,1440
2017-02-24T09:52:27.234Z,1456
2017-02-24T09:53:27.277Z,1536
2017-02-24T09:54:27.349Z,1588
2017-02-24T09:55:27.395Z,1648
2017-02-24T09:56:27.440Z,1728
2017-02-24T09:57:27.522Z,1740
2017-02-24T09:58:27.564Z,1748
2017-02-24T09:59:27.595Z,1804
2017-02-24T10:00:27.270Z,1760
2017-02-24T10:01:27.720Z,1852
2017-02-24T10:02:27.789Z,1808
2017-02-24T10:03:27.834Z,1852
2017-02-24T10:04:27.894Z,1900
2017-02-24T10:05:27.935Z,1992
2017-02-24T10:06:27.642Z,2092
2017-02-24T10:07:28.050Z,2124
2017-02-24T10:08:28.134Z,2184
2017-02-24T10:09:28.159Z,2128
2017-02-24T10:10:27.835Z,2108
2017-02-24T10:11:27.881Z,2100
2017-02-24T10:12:28.315Z,2108
2017-02-24T10:13:28.392Z,2036
2017-02-24T10:14:28.441Z,2008
2017-02-24T10:15:28.504Z,2040
2017-02-24T10:16:28.556Z,2028
2017-02-24T10:17:28.233Z,2036
2017-02-24T10:18:28.289Z,1984
2017-02-24T10:19:28.330Z,2004
2017-02-24T10:20:28.764Z,2056
2017-02-24T10:21:28.820Z,2284
2017-02-24T10:22:28.899Z,2576
2017-02-24T10:23:28.946Z,2656
2017-02-24T10:24:28.600Z,2672
2017-02-24T10:25:29.042Z,2780
2017-02-24T10:26:29.100Z,2888
2017-02-24T10:27:29.158Z,2844
2017-02-24T10:28:29.216Z,2760
2017-02-24T10:29:29.264Z,2732
2017-02-24T10:30:29.326Z,2888
2017-02-24T10:31:29.379Z,2916
2017-02-24T10:32:29.435Z,2772
2017-02-24T10:33:29.095Z,2764
2017-02-24T10:34:29.542Z,2900
2017-02-24T10:35:29.586Z,2912
2017-02-24T10:36:29.651Z,3016
2017-02-24T10:37:29.728Z,2924
2017-02-24T10:38:29.764Z,2232
2017-02-24T10:39:29.816Z,2116
2017-02-24T10:40:29.886Z,2288
2017-02-24T10:41:29.930Z,1932
2017-02-24T10:42:29.971Z,1764
2017-02-24T10:43:30.034Z,1712
2017-02-24T10:44:29.722Z,1984
2017-02-24T10:45:30.158Z,1848
2017-02-24T10:46:30.199Z,1632
2017-02-24T10:47:30.278Z,1892
2017-02-24T10:48:30.328Z,1704
2017-02-24T10:49:30.380Z,2140
2017-02-24T10:50:30.442Z,2052
2017-02-24T10:51:30.469Z,2876
2017-02-24T10:52:30.537Z,1932
2017-02-24T10:53:30.606Z,1648
2017-02-24T10:54:30.652Z,1572
2017-02-24T10:55:30.700Z,1940
2017-02-24T10:56:30.769Z,2224
2017-02-24T10:57:30.820Z,2708
2017-02-24T10:58:30.857Z,2096
2017-02-24T10:59:30.920Z,2004
2017-02-24T11:00:30.962Z,2264
2017-02-24T11:01:31.030Z,2124
2017-02-24T11:02:31.106Z,3932
2017-02-24T11:03:30.752Z,5892
2017-02-24T11:04:30.815Z,6612
2017-02-24T11:05:30.864Z,4904
2017-02-24T11:06:31.304Z,4548
2017-02-24T11:07:31.396Z,3828
2017-02-24T11:08:31.416Z,3800
2017-02-24T11:09:31.461Z,3216
2017-02-24T11:10:31.527Z,4084
2017-02-24T11:11:31.578Z,5100
2017-02-24T11:12:31.254Z,3428
2017-02-24T11:13:31.698Z,3240
2017-02-24T11:14:31.756Z,2336
2017-02-24T11:15:31.794Z,3224
2017-02-24T11:16:31.887Z,2928
2017-02-24T11:17:31.911Z,2136
2017-02-24T11:18:31.968Z,1772
2017-02-24T11:19:32.028Z,1844
2017-02-24T11:20:32.117Z,2000
2017-02-24T11:21:32.134Z,2604
2017-02-24T11:22:32.224Z,2380
2017-02-24T11:23:32.243Z,2188
2017-02-24T11:24:32.308Z,1808
2017-02-24T11:25:32.363Z,2696
2017-02-24T11:26:32.426Z,11528
2017-02-24T11:27:32.475Z,8836
2017-02-24T11:28:32.553Z,3392
2017-02-24T11:29:32.588Z,2308
2017-02-24T11:30:32.624Z,2044
2017-02-24T11:31:32.711Z,2024
2017-02-24T11:32:32.741Z,2004
2017-02-24T11:33:32.817Z,2248
2017-02-24T11:34:32.859Z,2224
2017-02-24T11:35:32.908Z,1936
2017-02-24T11:36:32.964Z,1984
2017-02-24T11:37:33.031Z,2048
2017-02-24T11:38:32.698Z,1888
2017-02-24T11:39:33.116Z,1984
2017-02-24T11:40:33.185Z,1968
2017-02-24T11:41:33.254Z,2712
2017-02-24T11:42:33.296Z,2024
2017-02-24T11:43:33.340Z,2268
2017-02-24T11:44:33.392Z,2544
2017-02-24T11:45:33.473Z,2704
2017-02-24T11:46:33.502Z,2288
2017-02-24T11:47:33.204Z,2260
2017-02-24T11:48:33.617Z,2388
2017-02-24T11:49:33.692Z,2304
2017-02-24T11:50:33.737Z,2216
2017-02-24T11:51:33.778Z,2212
2017-02-24T11:52:33.860Z,2384
2017-02-24T11:53:33.524Z,2112
2017-02-24T11:54:33.954Z,2108
2017-02-24T11:55:34.016Z,2104
2017-02-24T11:56:34.084Z,2060
2017-02-24T11:57:34.121Z,2052
2017-02-24T11:58:34.172Z,2260
2017-02-24T11:59:34.267Z,2108
2017-02-24T12:00:34.298Z,2016
2017-02-24T12:01:34.352Z,1992
2017-02-24T12:02:34.398Z,1932
2017-02-24T12:03:34.488Z,2008
2017-02-24T12:04:34.520Z,1932
2017-02-24T12:05:34.570Z,1760
2017-02-24T12:06:34.614Z,1932
2017-02-24T12:07:34.688Z,1820
2017-02-24T12:08:34.735Z,1612
2017-02-24T12:09:34.784Z,1936
2017-02-24T12:10:34.832Z,2040
2017-02-24T12:11:34.523Z,1988
2017-02-24T12:12:34.962Z,2400
2017-02-24T12:13:35.015Z,2624
2017-02-24T12:14:35.076Z,2712
2017-02-24T12:15:35.112Z,2568
2017-02-24T12:16:35.182Z,2032
2017-02-24T12:17:35.250Z,1964
2017-02-24T12:18:35.307Z,2112
2017-02-24T12:19:35.336Z,2192
2017-02-24T12:20:35.406Z,2400
2017-02-24T12:21:35.483Z,2320
2017-02-24T12:22:35.516Z,2648
2017-02-24T12:23:35.577Z,2324
2017-02-24T12:24:35.634Z,2960
2017-02-24T12:25:35.313Z,3100
2017-02-24T12:26:35.745Z,3508
2017-02-24T12:27:35.796Z,4748
2017-02-24T12:28:35.860Z,2564
2017-02-24T12:29:35.901Z,2384
2017-02-24T12:30:35.981Z,2444
2017-02-24T12:31:36.220Z,2552
2017-02-24T12:32:36.066Z,2716
2017-02-24T12:33:36.115Z,3072
2017-02-24T12:34:35.805Z,3792
2017-02-24T12:35:36.234Z,5436
2017-02-24T12:36:36.295Z,2756
2017-02-24T12:37:36.347Z,2832
2017-02-24T12:38:36.414Z,2100
2017-02-24T12:39:36.456Z,2148
2017-02-24T12:40:36.513Z,2248
2017-02-24T12:41:36.571Z,1896
2017-02-24T12:42:36.651Z,1952
2017-02-24T12:43:36.703Z,1796
2017-02-24T12:44:36.742Z,1852
2017-02-24T12:45:36.837Z,1756
2017-02-24T12:46:36.854Z,1716
2017-02-24T12:47:36.928Z,1880
2017-02-24T12:48:36.974Z,1788
2017-02-24T12:49:37.018Z,1968
2017-02-24T12:50:37.082Z,2288
2017-02-24T12:51:37.136Z,2048
2017-02-24T12:52:37.177Z,1808
2017-02-24T12:53:37.219Z,1648
2017-02-24T12:54:37.282Z,1828
2017-02-24T12:55:37.347Z,2196
2017-02-24T12:56:37.411Z,2148
2017-02-24T12:57:37.453Z,2896
2017-02-24T12:58:37.710Z,1932
2017-02-24T12:59:37.557Z,1980
2017-02-24T13:00:37.604Z,1900
2017-02-24T13:01:37.692Z,2028
2017-02-24T13:02:51.390Z,2368
2017-02-24T13:03:38.005Z,2116
2017-02-24T13:04:37.843Z,3280
2017-02-24T13:05:37.901Z,2292
2017-02-24T13:06:37.950Z,2316
2017-02-24T13:07:38.009Z,2340
2017-02-24T13:08:51.696Z,2112
2017-02-24T13:09:38.129Z,2400
2017-02-24T13:10:38.175Z,1980
2017-02-24T13:11:38.240Z,1844
2017-02-24T13:12:38.279Z,1552
2017-02-24T13:13:38.354Z,1544
2017-02-24T13:14:38.387Z,1560
2017-02-24T13:15:38.439Z,1372
2017-02-24T13:16:38.504Z,1396
2017-02-24T13:17:38.588Z,1440
2017-02-24T13:18:38.615Z,1384
2017-02-24T13:19:38.674Z,1356
2017-02-24T13:20:38.754Z,1356
2017-02-24T13:21:38.797Z,1300
2017-02-24T13:22:38.835Z,1292
2017-02-24T13:23:38.933Z,1256
2017-02-24T13:24:38.935Z,1248
2017-02-24T13:25:39.002Z,1216
2017-02-24T13:26:39.059Z,1220
2017-02-24T13:27:39.124Z,1224
2017-02-24T13:28:39.181Z,1240
2017-02-24T13:29:39.239Z,1212
2017-02-24T13:30:39.270Z,1236
2017-02-24T13:31:39.348Z,1216
2017-02-24T13:32:39.402Z,1204
2017-02-24T13:33:39.456Z,1208
2017-02-24T13:34:39.515Z,1204
2017-02-24T13:35:39.546Z,1200
2017-02-24T13:36:39.617Z,1204
2017-02-24T13:37:39.658Z,1188
2017-02-24T13:38:39.712Z,1200
2017-02-24T13:39:39.994Z,1196
2017-02-24T13:40:39.842Z,1204
2017-02-24T13:41:39.883Z,1124
2017-02-24T13:42:39.940Z,1120
2017-02-24T13:43:39.987Z,1100
2017-02-24T13:44:40.074Z,1068
2017-02-24T13:45:40.128Z,1112
2017-02-24T13:46:40.176Z,1084
2017-02-24T13:47:39.829Z,1072
2017-02-24T13:48:40.266Z,1032
2017-02-24T13:49:40.336Z,992
2017-02-24T13:50:39.990Z,992
2017-02-24T13:51:40.472Z,984
2017-02-24T13:52:40.512Z,964
2017-02-24T13:53:40.548Z,956
2017-02-24T13:54:40.608Z,932
2017-02-24T13:55:40.652Z,912
2017-02-24T13:56:40.720Z,968
2017-02-24T13:57:40.767Z,1040
2017-02-24T13:58:40.832Z,1048
2017-02-24T13:59:40.887Z,1008
2017-02-24T14:00:41.141Z,928
2017-02-24T14:01:40.981Z,900